createdAt,value
2017-10-26T00:00:48.730Z,18.17
2017-10-26T00:01:55.562Z,19.30
2017-10-26T00:03:01.667Z,16.60
2017-10-26T00:04:07.570Z,18.10
2017-10-26T00:05:13.661Z,21.08
2017-10-26T00:06:21.423Z,18.33
2017-10-26T00:07:28.329Z,17.87
2017-10-26T00:08:34.489Z,17.87
2017-10-26T00:09:40.749Z,19.00
2017-10-26T00:10:46.918Z,17.90
2017-10-26T00:11:53.043Z,18.05
2017-10-26T00:12:59.164Z,17.58
2017-10-26T00:14:07.216Z,19.33
2017-10-26T00:15:13.349Z,19.58
2017-10-26T00:16:18.776Z,20.12
2017-10-26T00:17:24.670Z,21.00
2017-10-26T00:18:31.799Z,18.17
2017-10-26T00:19:37.727Z,22.15
2017-10-26T00:20:46.903Z,18.33
2017-10-26T00:21:53.012Z,19.30
2017-10-26T00:22:59.090Z,18.33
2017-10-26T00:24:05.231Z,21.45
2017-10-26T00:25:11.325Z,19.35
2017-10-26T00:26:17.440Z,22.20
2017-10-26T00:27:23.577Z,18.90
2017-10-26T00:28:29.563Z,18.20
2017-10-26T00:29:35.703Z,21.17
2017-10-26T00:30:43.467Z,17.25
2017-10-26T00:31:49.567Z,21.90
2017-10-26T00:32:55.566Z,18.70
2017-10-26T00:34:01.711Z,18.10
2017-10-26T00:35:07.641Z,22.20
2017-10-26T00:36:13.739Z,20.17
2017-10-26T00:37:19.855Z,22.65
2017-10-26T00:38:25.982Z,19.25
2017-10-26T00:39:32.100Z,18.15
2017-10-26T00:40:38.226Z,18.02
2017-10-26T00:41:44.478Z,17.42
2017-10-26T00:42:50.589Z,17.62
2017-10-26T00:43:56.359Z,16.05
2017-10-26T00:45:02.290Z,16.75
2017-10-26T00:46:08.141Z,16.02
2017-10-26T00:47:17.391Z,19.25
2017-10-26T00:48:25.887Z,16.67
2017-10-26T00:49:31.969Z,16.87
2017-10-26T00:50:38.068Z,16.70
2017-10-26T00:51:44.122Z,21.12
2017-10-26T00:52:50.265Z,17.87
2017-10-26T00:53:56.417Z,18.73
2017-10-26T00:55:02.505Z,16.92
2017-10-26T00:56:08.588Z,19.15
2017-10-26T00:57:13.993Z,17.92
2017-10-26T00:58:23.492Z,20.83
2017-10-26T00:59:29.595Z,20.50
2017-10-26T01:00:34.932Z,18.25
2017-10-26T01:01:39.100Z,18.52
2017-10-26T01:02:44.491Z,20.62
2017-10-26T01:03:50.571Z,21.87
2017-10-26T01:04:56.440Z,17.95
2017-10-26T01:06:02.515Z,18.73
2017-10-26T01:07:08.598Z,18.80
2017-10-26T01:08:21.351Z,18.70
2017-10-26T01:09:29.184Z,18.75
2017-10-26T01:10:35.625Z,18.42
2017-10-26T01:11:41.761Z,19.90
2017-10-26T01:12:47.845Z,17.95
2017-10-26T01:13:53.992Z,17.33
2017-10-26T01:14:59.799Z,18.75
2017-10-26T01:16:04.955Z,17.10
2017-10-26T01:17:10.837Z,17.62
2017-10-26T01:18:16.895Z,21.95
2017-10-26T01:19:22.711Z,20.48
2017-10-26T01:20:27.876Z,19.35
2017-10-26T01:21:33.212Z,18.50
2017-10-26T01:22:39.093Z,18.12
2017-10-26T01:23:44.440Z,21.52
2017-10-26T01:24:49.851Z,20.95
2017-10-26T01:25:55.214Z,19.60
2017-10-26T01:27:00.601Z,19.23
2017-10-26T01:28:06.019Z,17.80
2017-10-26T01:29:16.222Z,16.70
2017-10-26T01:30:29.450Z,18.50
2017-10-26T01:31:34.816Z,20.15
2017-10-26T01:32:40.219Z,18.33
2017-10-26T01:33:45.575Z,17.12
2017-10-26T01:34:51.153Z,18.12
2017-10-26T01:35:58.232Z,20.52
2017-10-26T01:37:03.768Z,18.45
2017-10-26T01:38:09.222Z,18.95
2017-10-26T01:39:14.970Z,17.65
2017-10-26T01:40:20.482Z,18.55
2017-10-26T01:41:25.854Z,19.15
2017-10-26T01:42:31.223Z,20.08
2017-10-26T01:43:36.687Z,18.83
2017-10-26T01:44:42.054Z,17.20
2017-10-26T01:45:50.744Z,17.20
2017-10-26T01:46:56.132Z,17.35
2017-10-26T01:48:01.473Z,19.00
2017-10-26T01:49:06.635Z,18.62
2017-10-26T01:50:19.801Z,17.58
2017-10-26T01:51:26.705Z,19.08
2017-10-26T01:52:32.070Z,20.02
2017-10-26T01:53:37.566Z,19.50
2017-10-26T01:54:42.754Z,19.35
2017-10-26T01:55:48.112Z,19.10
2017-10-26T01:56:53.103Z,16.77
2017-10-26T01:57:58.640Z,17.45
2017-10-26T01:59:04.011Z,16.67
2017-10-26T02:00:10.366Z,18.62
2017-10-26T02:01:16.017Z,19.33
2017-10-26T02:02:22.178Z,17.65
2017-10-26T02:03:27.307Z,17.40
2017-10-26T02:04:32.475Z,19.42
2017-10-26T02:05:37.859Z,16.58
2017-10-26T02:06:43.049Z,16.98
2017-10-26T02:07:48.720Z,17.00
2017-10-26T02:08:54.961Z,17.08
2017-10-26T02:10:00.318Z,18.30
2017-10-26T02:11:17.890Z,16.98
2017-10-26T02:12:24.572Z,17.00
2017-10-26T02:13:30.337Z,16.98
2017-10-26T02:14:35.733Z,19.35
2017-10-26T02:15:41.453Z,17.33
2017-10-26T02:16:46.796Z,17.27
2017-10-26T02:17:52.161Z,21.10
2017-10-26T02:18:57.544Z,18.62
2017-10-26T02:20:03.323Z,19.70
2017-10-26T02:21:08.692Z,18.20
2017-10-26T02:22:14.075Z,17.58
2017-10-26T02:23:19.774Z,17.75
2017-10-26T02:24:25.208Z,16.52
2017-10-26T02:25:30.588Z,17.85
2017-10-26T02:26:36.722Z,16.80
2017-10-26T02:27:42.826Z,17.45
2017-10-26T02:29:00.851Z,17.10
2017-10-26T02:30:17.669Z,16.45
2017-10-26T02:31:34.665Z,18.87
2017-10-26T02:32:40.822Z,19.45
2017-10-26T02:33:46.928Z,18.45
2017-10-26T02:34:53.150Z,18.95
2017-10-26T02:35:58.846Z,17.23
2017-10-26T02:37:04.542Z,18.50
2017-10-26T02:38:10.282Z,16.30
2017-10-26T02:39:16.387Z,16.60
2017-10-26T02:40:22.518Z,17.42
2017-10-26T02:41:28.622Z,17.02
2017-10-26T02:42:34.715Z,18.17
2017-10-26T02:43:43.330Z,18.77
2017-10-26T02:44:49.727Z,16.20
2017-10-26T02:45:55.999Z,16.80
2017-10-26T02:47:02.062Z,16.17
2017-10-26T02:48:08.126Z,17.60
2017-10-26T02:49:14.404Z,18.73
2017-10-26T02:50:20.646Z,17.45
2017-10-26T02:51:26.748Z,17.80
2017-10-26T02:52:32.820Z,16.45
2017-10-26T02:53:38.239Z,21.73
2017-10-26T02:54:44.455Z,16.48
2017-10-26T02:55:50.551Z,16.75
2017-10-26T02:56:56.635Z,17.20
2017-10-26T02:58:02.757Z,17.02
2017-10-26T02:59:08.559Z,18.05
2017-10-26T03:00:13.970Z,16.67
2017-10-26T03:01:19.190Z,18.60
2017-10-26T03:02:24.340Z,18.27
2017-10-26T03:03:29.503Z,18.80
2017-10-26T03:04:34.877Z,16.87
2017-10-26T03:05:40.469Z,18.85
2017-10-26T03:06:48.728Z,18.60
2017-10-26T03:07:54.842Z,18.33
2017-10-26T03:09:01.963Z,20.02
2017-10-26T03:10:08.070Z,18.48
2017-10-26T03:11:14.159Z,20.05
2017-10-26T03:12:19.894Z,18.95
2017-10-26T03:13:25.967Z,17.55
2017-10-26T03:14:32.136Z,17.98
2017-10-26T03:15:40.340Z,19.20
2017-10-26T03:16:46.456Z,17.30
2017-10-26T03:17:52.638Z,15.80
2017-10-26T03:18:58.699Z,16.70
2017-10-26T03:20:04.780Z,17.55
2017-10-26T03:21:10.928Z,16.65
2017-10-26T03:22:17.039Z,16.08
2017-10-26T03:23:23.288Z,17.35
2017-10-26T03:24:29.860Z,18.10
2017-10-26T03:25:36.630Z,20.17
2017-10-26T03:26:43.536Z,16.92
2017-10-26T03:27:51.021Z,19.12
2017-10-26T03:28:58.604Z,17.08
2017-10-26T03:30:06.477Z,17.35
2017-10-26T03:31:13.689Z,18.92
2017-10-26T03:32:21.483Z,18.00
2017-10-26T03:33:28.524Z,18.10
2017-10-26T03:34:40.675Z,19.52
2017-10-26T03:35:47.999Z,18.08
2017-10-26T03:36:55.828Z,17.77
2017-10-26T03:38:02.882Z,19.50
2017-10-26T03:39:09.869Z,18.52
2017-10-26T03:40:17.386Z,17.30
2017-10-26T03:41:25.951Z,16.80
2017-10-26T03:42:36.653Z,16.45
2017-10-26T03:43:43.802Z,16.12
2017-10-26T03:44:50.907Z,17.30
2017-10-26T03:45:58.054Z,17.17
2017-10-26T03:47:05.501Z,16.85
2017-10-26T03:48:14.097Z,18.65
2017-10-26T03:49:21.169Z,19.33
2017-10-26T03:50:29.414Z,17.67
2017-10-26T03:51:37.617Z,17.52
2017-10-26T03:52:45.054Z,18.95
2017-10-26T03:53:52.506Z,17.00
2017-10-26T03:55:01.031Z,17.33
2017-10-26T03:56:08.457Z,17.37
2017-10-26T03:57:15.448Z,17.40
2017-10-26T03:58:22.916Z,19.65
2017-10-26T03:59:30.125Z,18.45
2017-10-26T04:00:38.292Z,16.25
2017-10-26T04:01:45.632Z,20.60
2017-10-26T04:02:56.667Z,19.60
2017-10-26T04:04:04.627Z,18.00
2017-10-26T04:05:11.808Z,18.05
2017-10-26T04:06:19.823Z,16.80
2017-10-26T04:07:29.007Z,19.42
2017-10-26T04:08:37.287Z,17.10
2017-10-26T04:09:49.065Z,18.73
2017-10-26T04:10:55.860Z,18.33
2017-10-26T04:12:01.791Z,20.35
2017-10-26T04:13:07.907Z,15.88
2017-10-26T04:14:14.056Z,16.48
2017-10-26T04:15:20.157Z,17.65
2017-10-26T04:16:26.635Z,15.63
2017-10-26T04:17:33.474Z,16.70
2017-10-26T04:18:42.323Z,17.17
2017-10-26T04:19:50.643Z,16.85
2017-10-26T04:20:57.139Z,18.85
2017-10-26T04:22:03.209Z,18.45
2017-10-26T04:23:09.139Z,21.02
2017-10-26T04:24:15.434Z,17.20
2017-10-26T04:25:21.597Z,18.60
2017-10-26T04:26:27.555Z,16.73
2017-10-26T04:27:33.637Z,18.35
2017-10-26T04:28:39.741Z,21.52
2017-10-26T04:29:45.840Z,16.08
2017-10-26T04:30:53.316Z,17.52
2017-10-26T04:31:58.329Z,18.98
2017-10-26T04:33:03.871Z,19.02
2017-10-26T04:34:09.376Z,20.77
2017-10-26T04:35:15.457Z,19.05
2017-10-26T04:36:21.548Z,20.95
2017-10-26T04:37:28.533Z,18.33
2017-10-26T04:38:34.423Z,17.25
2017-10-26T04:39:40.544Z,19.85
2017-10-26T04:40:46.643Z,17.90
2017-10-26T04:41:52.752Z,17.17
2017-10-26T04:42:58.834Z,15.48
2017-10-26T04:44:04.913Z,18.75
2017-10-26T04:45:11.204Z,21.45
2017-10-26T04:46:17.308Z,20.10
2017-10-26T04:47:23.425Z,26.15
2017-10-26T04:48:29.176Z,19.90
2017-10-26T04:49:35.265Z,22.45
2017-10-26T04:50:41.370Z,22.87
2017-10-26T04:51:47.448Z,28.48
2017-10-26T04:52:53.521Z,24.60
2017-10-26T04:54:00.351Z,20.85
2017-10-26T04:55:07.622Z,27.75
2017-10-26T04:56:15.216Z,25.88
2017-10-26T04:57:22.535Z,24.15
2017-10-26T04:58:28.636Z,23.50
2017-10-26T04:59:35.428Z,27.13
2017-10-26T05:00:42.344Z,25.17
2017-10-26T05:01:49.020Z,27.02
2017-10-26T05:02:55.348Z,24.17
2017-10-26T05:04:02.074Z,24.02
2017-10-26T05:05:08.302Z,23.62
2017-10-26T05:06:15.011Z,23.85
2017-10-26T05:07:21.476Z,26.85
2017-10-26T05:08:28.603Z,26.80
2017-10-26T05:09:34.838Z,24.92
2017-10-26T05:10:41.055Z,23.98
2017-10-26T05:11:47.177Z,20.80
2017-10-26T05:12:53.255Z,23.80
2017-10-26T05:13:59.425Z,27.23
2017-10-26T05:15:05.552Z,26.80
2017-10-26T05:16:11.764Z,23.65
2017-10-26T05:17:17.898Z,24.98
2017-10-26T05:18:24.020Z,25.52
2017-10-26T05:19:30.074Z,23.83
2017-10-26T05:20:38.240Z,22.00
2017-10-26T05:21:46.615Z,26.83
2017-10-26T05:22:52.748Z,27.02
2017-10-26T05:23:58.877Z,25.83
2017-10-26T05:25:05.036Z,26.37
2017-10-26T05:26:11.148Z,23.77
2017-10-26T05:27:17.276Z,24.05
2017-10-26T05:28:28.895Z,27.30
2017-10-26T05:29:34.795Z,22.60
2017-10-26T05:30:40.943Z,20.67
2017-10-26T05:31:47.066Z,22.17
2017-10-26T05:32:53.114Z,22.27
2017-10-26T05:33:58.865Z,21.10
2017-10-26T05:35:04.498Z,23.00
2017-10-26T05:36:10.257Z,22.27
2017-10-26T05:37:16.392Z,22.00
2017-10-26T05:38:21.809Z,26.00
2017-10-26T05:39:27.508Z,23.23
2017-10-26T05:40:33.289Z,22.65
2017-10-26T05:41:39.069Z,21.83
2017-10-26T05:42:44.769Z,29.85
2017-10-26T05:43:50.673Z,21.33
2017-10-26T05:44:56.733Z,46.40
2017-10-26T05:46:02.873Z,33.13
2017-10-26T05:47:09.019Z,24.63
2017-10-26T05:48:14.346Z,24.95
2017-10-26T05:49:20.469Z,23.65
2017-10-26T05:50:26.594Z,22.75
2017-10-26T05:51:32.114Z,22.83
2017-10-26T05:52:38.208Z,20.20
2017-10-26T05:53:44.312Z,22.17
2017-10-26T05:54:50.358Z,24.67
2017-10-26T05:55:56.478Z,23.90
2017-10-26T05:57:03.319Z,21.35
2017-10-26T05:58:09.429Z,22.33
2017-10-26T05:59:15.961Z,22.77
2017-10-26T06:00:21.976Z,26.23
2017-10-26T06:01:28.027Z,23.58
2017-10-26T06:02:34.132Z,23.25
2017-10-26T06:03:40.253Z,20.67
2017-10-26T06:04:46.366Z,25.37
2017-10-26T06:05:52.437Z,27.60
2017-10-26T06:06:58.547Z,24.52
2017-10-26T06:08:04.640Z,20.33
2017-10-26T06:09:10.543Z,24.52
2017-10-26T06:10:16.449Z,23.35
2017-10-26T06:11:22.842Z,20.12
2017-10-26T06:12:28.978Z,21.52
2017-10-26T06:13:35.085Z,21.70
2017-10-26T06:14:41.191Z,22.15
2017-10-26T06:15:47.294Z,21.08
2017-10-26T06:16:53.367Z,25.77
2017-10-26T06:17:59.511Z,23.98
2017-10-26T06:19:05.652Z,21.48
2017-10-26T06:20:11.731Z,23.25
2017-10-26T06:21:17.809Z,21.35
2017-10-26T06:22:24.122Z,23.15
2017-10-26T06:23:30.209Z,23.38
2017-10-26T06:24:36.364Z,22.42
2017-10-26T06:25:42.470Z,20.80
2017-10-26T06:26:48.602Z,23.65
2017-10-26T06:27:54.521Z,25.15
2017-10-26T06:29:00.652Z,24.67
2017-10-26T06:30:06.763Z,19.80
2017-10-26T06:31:12.848Z,20.50
2017-10-26T06:32:18.792Z,22.90
2017-10-26T06:33:24.876Z,21.65
2017-10-26T06:34:30.971Z,20.00
2017-10-26T06:35:37.063Z,22.23
2017-10-26T06:36:43.133Z,21.75
2017-10-26T06:37:49.268Z,22.02
2017-10-26T06:38:55.399Z,23.45
2017-10-26T06:40:01.670Z,21.10
2017-10-26T06:41:07.773Z,29.15
2017-10-26T06:42:13.911Z,21.30
2017-10-26T06:43:19.829Z,25.15
2017-10-26T06:44:26.342Z,20.90
2017-10-26T06:45:32.256Z,24.37
2017-10-26T06:46:38.357Z,23.40
2017-10-26T06:47:44.470Z,23.27
2017-10-26T06:48:50.840Z,27.15
2017-10-26T06:49:56.800Z,23.73
2017-10-26T06:51:02.686Z,27.37
2017-10-26T06:52:12.331Z,25.35
2017-10-26T06:53:19.479Z,24.27
2017-10-26T06:54:25.536Z,26.60
2017-10-26T06:55:31.635Z,24.80
2017-10-26T06:56:37.553Z,25.05
2017-10-26T06:57:43.474Z,25.73
2017-10-26T06:58:49.537Z,26.37
2017-10-26T06:59:55.403Z,24.92
2017-10-26T07:01:01.475Z,24.33
2017-10-26T07:02:07.339Z,26.08
2017-10-26T07:03:13.432Z,27.77
2017-10-26T07:04:19.493Z,24.92
2017-10-26T07:05:25.840Z,23.65
2017-10-26T07:06:31.919Z,23.05
2017-10-26T07:07:38.091Z,23.85
2017-10-26T07:08:44.040Z,23.35
2017-10-26T07:09:50.155Z,25.45
2017-10-26T07:10:56.238Z,23.55
2017-10-26T07:12:02.384Z,27.70
2017-10-26T07:13:08.498Z,27.02
2017-10-26T07:14:14.565Z,23.30
2017-10-26T07:15:20.676Z,26.58
2017-10-26T07:16:26.440Z,25.75
2017-10-26T07:17:35.459Z,27.80
2017-10-26T07:18:41.554Z,26.40
2017-10-26T07:19:47.615Z,24.00
2017-10-26T07:20:53.728Z,24.17
2017-10-26T07:21:59.822Z,25.30
2017-10-26T07:23:05.922Z,23.27
2017-10-26T07:24:12.006Z,27.00
2017-10-26T07:25:24.967Z,23.50
2017-10-26T07:26:31.129Z,22.80
2017-10-26T07:27:37.239Z,23.98
2017-10-26T07:28:44.052Z,23.67
2017-10-26T07:29:49.907Z,27.80
2017-10-26T07:30:59.881Z,24.67
2017-10-26T07:32:05.754Z,22.33
2017-10-26T07:33:11.958Z,27.40
2017-10-26T07:34:18.098Z,23.58
2017-10-26T07:35:24.236Z,26.42
2017-10-26T07:36:29.962Z,22.55
2017-10-26T07:37:36.078Z,22.95
2017-10-26T07:38:42.159Z,27.10
2017-10-26T07:39:47.887Z,23.33
2017-10-26T07:40:54.035Z,24.40
2017-10-26T07:42:00.107Z,25.00
2017-10-26T07:43:05.848Z,24.00
2017-10-26T07:44:11.962Z,26.92
2017-10-26T07:45:17.665Z,24.23
2017-10-26T07:46:23.384Z,26.17
2017-10-26T07:47:29.465Z,26.33
2017-10-26T07:48:35.158Z,22.67
2017-10-26T07:49:41.270Z,25.35
2017-10-26T07:50:47.361Z,24.27
2017-10-26T07:51:53.495Z,24.08
2017-10-26T07:52:59.574Z,22.67
2017-10-26T07:54:05.343Z,23.95
2017-10-26T07:55:11.432Z,23.40
2017-10-26T07:56:17.536Z,21.83
2017-10-26T07:57:23.672Z,26.10
2017-10-26T07:58:29.761Z,24.55
2017-10-26T07:59:35.911Z,24.95
2017-10-26T08:00:41.718Z,24.17
2017-10-26T08:01:47.223Z,21.75
2017-10-26T08:02:53.309Z,24.70
2017-10-26T08:03:59.141Z,24.42
2017-10-26T08:05:04.555Z,26.90
2017-10-26T08:06:10.648Z,23.98
2017-10-26T08:07:16.743Z,20.62
2017-10-26T08:08:22.501Z,23.27
2017-10-26T08:09:28.220Z,21.55
2017-10-26T08:10:34.311Z,19.98
2017-10-26T08:11:40.479Z,22.87
2017-10-26T08:12:46.593Z,22.60
2017-10-26T08:13:52.663Z,22.98
2017-10-26T08:14:58.797Z,23.62
2017-10-26T08:16:04.586Z,24.73
2017-10-26T08:17:10.676Z,23.83
2017-10-26T08:18:16.784Z,24.52
2017-10-26T08:19:22.885Z,21.58
2017-10-26T08:20:28.261Z,20.27
2017-10-26T08:21:33.627Z,21.87
2017-10-26T08:22:39.103Z,22.42
2017-10-26T08:23:45.171Z,22.70
2017-10-26T08:24:51.296Z,21.98
2017-10-26T08:25:56.684Z,24.52
2017-10-26T08:27:02.786Z,24.40
2017-10-26T08:28:08.142Z,24.25
2017-10-26T08:29:13.883Z,24.00
2017-10-26T08:30:22.598Z,23.77
2017-10-26T08:31:28.323Z,21.67
2017-10-26T08:32:34.386Z,22.15
2017-10-26T08:33:40.180Z,21.10
2017-10-26T08:34:46.292Z,23.73
2017-10-26T08:35:52.369Z,23.52
2017-10-26T08:36:58.116Z,23.35
2017-10-26T08:38:04.149Z,20.90
2017-10-26T08:39:10.297Z,22.87
2017-10-26T08:40:16.358Z,24.40
2017-10-26T08:41:22.419Z,23.77
2017-10-26T08:42:28.476Z,21.45
2017-10-26T08:43:34.557Z,20.95
2017-10-26T08:44:40.788Z,27.92
2017-10-26T08:45:46.879Z,21.17
2017-10-26T08:46:52.629Z,22.15
2017-10-26T08:47:58.728Z,23.20
2017-10-26T08:49:07.178Z,25.60
2017-10-26T08:50:12.626Z,19.65
2017-10-26T08:51:17.971Z,22.70
2017-10-26T08:52:23.326Z,20.75
2017-10-26T08:53:28.681Z,20.98
2017-10-26T08:54:34.094Z,21.75
2017-10-26T08:55:39.787Z,21.00
2017-10-26T08:56:45.531Z,20.70
2017-10-26T08:57:50.905Z,21.95
2017-10-26T08:58:56.313Z,22.25
2017-10-26T09:00:01.679Z,20.45
2017-10-26T09:01:07.205Z,20.27
2017-10-26T09:02:12.559Z,20.67
2017-10-26T09:03:20.788Z,20.88
2017-10-26T09:04:26.213Z,20.37
2017-10-26T09:05:31.633Z,20.83
2017-10-26T09:06:36.966Z,21.48
2017-10-26T09:07:42.383Z,22.85
2017-10-26T09:08:47.543Z,19.30
2017-10-26T09:09:53.261Z,18.10
2017-10-26T09:10:59.578Z,18.55
2017-10-26T09:12:05.146Z,19.33
2017-10-26T09:13:11.231Z,23.55
2017-10-26T09:14:16.801Z,21.15
2017-10-26T09:15:22.098Z,19.35
2017-10-26T09:16:27.122Z,19.98
2017-10-26T09:17:33.658Z,21.23
2017-10-26T09:18:39.316Z,22.85
2017-10-26T09:19:44.674Z,20.35
2017-10-26T09:20:50.120Z,18.52
2017-10-26T09:21:55.609Z,20.00
2017-10-26T09:23:01.361Z,18.37
2017-10-26T09:24:06.725Z,18.62
2017-10-26T09:25:12.098Z,17.77
2017-10-26T09:26:17.507Z,17.92
2017-10-26T09:27:23.256Z,17.65
2017-10-26T09:28:28.676Z,19.20
2017-10-26T09:29:33.852Z,18.70
2017-10-26T09:30:39.502Z,20.35
2017-10-26T09:31:45.233Z,18.35
2017-10-26T09:32:56.794Z,19.08
2017-10-26T09:34:02.204Z,17.87
2017-10-26T09:35:09.953Z,18.77
2017-10-26T09:36:15.322Z,17.10
2017-10-26T09:37:20.690Z,19.05
2017-10-26T09:38:26.041Z,21.23
2017-10-26T09:39:31.413Z,20.05
2017-10-26T09:40:38.353Z,18.33
2017-10-26T09:41:43.779Z,19.98
2017-10-26T09:42:49.456Z,18.30
2017-10-26T09:43:54.829Z,20.73
2017-10-26T09:45:00.184Z,20.10
2017-10-26T09:46:05.574Z,19.50
2017-10-26T09:47:10.980Z,19.30
2017-10-26T09:48:16.485Z,18.73
2017-10-26T09:49:22.005Z,18.90
2017-10-26T09:50:27.393Z,19.35
2017-10-26T09:51:32.738Z,18.65
2017-10-26T09:52:38.408Z,19.85
2017-10-26T09:53:43.744Z,19.55
2017-10-26T09:54:49.458Z,19.67
2017-10-26T09:55:54.825Z,21.45
2017-10-26T09:57:00.157Z,20.65
2017-10-26T09:58:05.539Z,20.08
2017-10-26T09:59:11.852Z,19.42
2017-10-26T10:00:17.204Z,22.25
2017-10-26T10:01:22.612Z,20.10
2017-10-26T10:02:27.948Z,18.65
2017-10-26T10:03:33.317Z,20.90
2017-10-26T10:04:38.750Z,22.67
2017-10-26T10:05:44.432Z,22.23
2017-10-26T10:06:49.952Z,21.00
2017-10-26T10:07:55.371Z,21.17
2017-10-26T10:09:00.551Z,19.37
2017-10-26T10:10:06.050Z,20.42
2017-10-26T10:11:12.426Z,20.60
2017-10-26T10:12:17.763Z,20.20
2017-10-26T10:13:23.106Z,19.10
2017-10-26T10:14:28.416Z,19.83
2017-10-26T10:15:33.761Z,20.15
2017-10-26T10:16:39.162Z,21.48
2017-10-26T10:17:44.503Z,22.37
2017-10-26T10:18:49.630Z,22.92
2017-10-26T10:20:08.963Z,21.35
2017-10-26T10:21:14.299Z,22.05
2017-10-26T10:22:20.059Z,20.75
2017-10-26T10:23:25.525Z,23.20
2017-10-26T10:24:31.053Z,23.15
2017-10-26T10:25:36.557Z,23.05
2017-10-26T10:26:41.705Z,20.37
2017-10-26T10:27:46.870Z,20.95
2017-10-26T10:28:52.231Z,23.58
2017-10-26T10:29:57.588Z,18.80
2017-10-26T10:31:02.923Z,19.52
2017-10-26T10:32:08.432Z,20.92
2017-10-26T10:33:13.632Z,20.25
2017-10-26T10:34:19.100Z,19.85
2017-10-26T10:35:24.444Z,22.42
2017-10-26T10:36:29.770Z,23.15
2017-10-26T10:37:35.241Z,21.05
2017-10-26T10:38:40.439Z,19.42
2017-10-26T10:39:45.767Z,20.65
2017-10-26T10:40:51.122Z,19.65
2017-10-26T10:41:56.801Z,20.20
2017-10-26T10:43:02.239Z,20.15
2017-10-26T10:44:07.404Z,29.30
2017-10-26T10:45:13.127Z,20.10
2017-10-26T10:46:18.467Z,22.90
2017-10-26T10:47:24.048Z,18.67
2017-10-26T10:48:29.554Z,18.50
2017-10-26T10:49:34.702Z,20.17
2017-10-26T10:50:40.395Z,18.70
2017-10-26T10:51:46.073Z,20.70
2017-10-26T10:52:51.428Z,21.85
2017-10-26T10:53:56.761Z,19.83
2017-10-26T10:55:02.968Z,19.15
2017-10-26T10:56:08.310Z,21.35
2017-10-26T10:57:13.776Z,19.83
2017-10-26T10:58:19.514Z,17.08
2017-10-26T10:59:30.124Z,18.70
2017-10-26T11:00:35.460Z,19.05
2017-10-26T11:01:42.728Z,18.45
2017-10-26T11:02:48.078Z,17.40
2017-10-26T11:03:53.447Z,16.77
2017-10-26T11:04:58.774Z,19.25
2017-10-26T11:06:04.113Z,19.33
2017-10-26T11:07:09.448Z,16.65
2017-10-26T11:08:15.187Z,16.50
2017-10-26T11:09:20.530Z,15.95
2017-10-26T11:10:26.126Z,16.17
2017-10-26T11:11:31.522Z,17.00
2017-10-26T11:12:37.222Z,15.40
2017-10-26T11:13:42.578Z,17.37
2017-10-26T11:14:47.919Z,14.60
2017-10-26T11:15:53.617Z,16.23
2017-10-26T11:16:59.020Z,16.60
2017-10-26T11:18:04.411Z,14.80
2017-10-26T11:19:09.771Z,15.23
2017-10-26T11:20:15.098Z,13.38
2017-10-26T11:21:20.804Z,14.32
2017-10-26T11:22:26.185Z,14.40
2017-10-26T11:23:31.559Z,13.95
2017-10-26T11:24:36.952Z,14.13
2017-10-26T11:25:42.335Z,14.45
2017-10-26T11:26:47.701Z,13.65
2017-10-26T11:27:53.049Z,12.02
2017-10-26T11:28:58.416Z,14.23
2017-10-26T11:30:03.742Z,13.07
2017-10-26T11:31:09.099Z,12.93
2017-10-26T11:32:14.563Z,12.98
2017-10-26T11:33:19.747Z,13.27
2017-10-26T11:34:25.071Z,12.50
2017-10-26T11:35:34.090Z,12.75
2017-10-26T11:36:43.790Z,13.48
2017-10-26T11:37:49.175Z,13.23
2017-10-26T11:38:54.784Z,12.40
2017-10-26T11:40:00.303Z,12.75
2017-10-26T11:41:05.657Z,14.23
2017-10-26T11:42:11.022Z,12.40
2017-10-26T11:43:16.504Z,12.05
2017-10-26T11:44:21.863Z,11.02
2017-10-26T11:45:27.533Z,12.45
2017-10-26T11:46:33.227Z,12.25
2017-10-26T11:47:38.371Z,13.75
2017-10-26T11:48:43.558Z,11.75
2017-10-26T11:49:49.098Z,12.63
2017-10-26T11:50:54.427Z,15.07
2017-10-26T11:51:59.569Z,12.82
2017-10-26T11:53:04.985Z,11.68
2017-10-26T11:54:10.325Z,12.48
2017-10-26T11:55:15.488Z,14.20
2017-10-26T11:56:24.550Z,15.80
2017-10-26T11:57:29.707Z,11.88
2017-10-26T11:58:35.055Z,13.85
2017-10-26T11:59:40.443Z,13.27
2017-10-26T12:00:46.310Z,14.00
2017-10-26T12:01:51.458Z,12.98
2017-10-26T12:02:56.450Z,12.63
2017-10-26T12:04:02.802Z,12.00
2017-10-26T12:05:08.474Z,13.15
2017-10-26T12:06:13.816Z,12.57
2017-10-26T12:07:19.143Z,11.90
2017-10-26T12:08:24.374Z,13.50
2017-10-26T12:09:30.074Z,11.73
2017-10-26T12:10:35.411Z,11.90
2017-10-26T12:11:42.076Z,12.43
2017-10-26T12:12:47.794Z,13.30
2017-10-26T12:13:52.999Z,15.70
2017-10-26T12:14:58.330Z,12.18
2017-10-26T12:16:03.710Z,13.48
2017-10-26T12:17:12.167Z,12.68
2017-10-26T12:18:17.529Z,12.88
2017-10-26T12:19:23.244Z,12.68
2017-10-26T12:20:28.618Z,13.60
2017-10-26T12:21:33.957Z,13.48
2017-10-26T12:22:41.694Z,13.10
2017-10-26T12:23:46.895Z,14.50
2017-10-26T12:24:52.247Z,13.35
2017-10-26T12:25:57.928Z,13.00
2017-10-26T12:27:03.617Z,12.82
2017-10-26T12:28:08.978Z,13.20
2017-10-26T12:29:14.491Z,13.70
2017-10-26T12:30:19.436Z,12.85
2017-10-26T12:31:24.966Z,12.07
2017-10-26T12:32:30.311Z,12.00
2017-10-26T12:33:35.274Z,12.43
2017-10-26T12:34:40.446Z,12.60
2017-10-26T12:35:45.786Z,13.62
2017-10-26T12:36:50.953Z,13.60
2017-10-26T12:37:59.439Z,14.80
2017-10-26T12:39:05.377Z,14.87
2017-10-26T12:40:10.721Z,14.05
2017-10-26T12:41:15.895Z,13.13
2017-10-26T12:42:21.267Z,13.73
2017-10-26T12:43:26.434Z,12.60
2017-10-26T12:44:31.768Z,13.50
2017-10-26T12:45:37.113Z,13.35
2017-10-26T12:46:43.222Z,14.02
2017-10-26T12:47:48.560Z,14.15
2017-10-26T12:48:53.952Z,12.37
2017-10-26T12:49:59.341Z,13.23
2017-10-26T12:51:04.669Z,12.93
2017-10-26T12:52:10.010Z,12.77
2017-10-26T12:53:15.370Z,12.98
2017-10-26T12:54:21.065Z,12.65
2017-10-26T12:55:26.410Z,12.50
2017-10-26T12:56:32.456Z,11.73
2017-10-26T12:57:38.160Z,13.23
2017-10-26T12:58:49.198Z,11.68
2017-10-26T12:59:57.987Z,11.38
2017-10-26T13:01:03.698Z,12.60
2017-10-26T13:02:09.065Z,11.30
2017-10-26T13:03:14.433Z,13.05
2017-10-26T13:04:19.786Z,10.98
2017-10-26T13:05:25.511Z,11.77
2017-10-26T13:06:30.890Z,12.18
2017-10-26T13:07:36.040Z,12.13
2017-10-26T13:08:41.783Z,11.07
2017-10-26T13:09:47.115Z,11.00
2017-10-26T13:10:52.464Z,10.55
2017-10-26T13:11:59.734Z,11.27
2017-10-26T13:13:05.453Z,12.23
2017-10-26T13:14:10.819Z,11.02
2017-10-26T13:15:16.134Z,10.05
2017-10-26T13:16:21.473Z,12.50
2017-10-26T13:17:26.798Z,12.30
2017-10-26T13:18:32.127Z,9.98
2017-10-26T13:19:44.328Z,10.70
2017-10-26T13:20:52.950Z,11.45
2017-10-26T13:21:58.281Z,10.02
2017-10-26T13:23:03.951Z,9.93
2017-10-26T13:24:09.298Z,10.30
2017-10-26T13:25:14.630Z,9.68
2017-10-26T13:26:19.971Z,9.70
2017-10-26T13:27:25.298Z,10.38
2017-10-26T13:28:31.343Z,10.20
2017-10-26T13:29:37.442Z,10.70
2017-10-26T13:30:43.184Z,12.93
2017-10-26T13:31:49.264Z,12.45
2017-10-26T13:32:55.305Z,11.63
2017-10-26T13:34:01.351Z,10.85
2017-10-26T13:35:07.474Z,10.40
2017-10-26T13:36:13.526Z,9.93
2017-10-26T13:37:19.189Z,11.12
2017-10-26T13:38:24.862Z,13.00
2017-10-26T13:39:30.922Z,8.93
2017-10-26T13:40:44.227Z,10.05
2017-10-26T13:41:50.306Z,10.95
2017-10-26T13:42:56.387Z,11.85
2017-10-26T13:44:02.128Z,10.20
2017-10-26T13:45:07.988Z,9.73
2017-10-26T13:46:14.018Z,9.88
2017-10-26T13:47:20.084Z,10.90
2017-10-26T13:48:25.768Z,10.95
2017-10-26T13:49:31.838Z,11.25
2017-10-26T13:50:37.901Z,11.15
2017-10-26T13:51:43.954Z,10.70
2017-10-26T13:52:50.078Z,9.98
2017-10-26T13:53:55.802Z,12.50
2017-10-26T13:55:01.865Z,10.75
2017-10-26T13:56:07.534Z,9.18
2017-10-26T13:57:14.519Z,9.90
2017-10-26T13:58:20.551Z,9.63
2017-10-26T13:59:26.600Z,9.80
2017-10-26T14:00:32.271Z,9.95
2017-10-26T14:01:42.773Z,8.48
2017-10-26T14:02:49.218Z,9.98
2017-10-26T14:03:54.534Z,7.85
2017-10-26T14:05:00.422Z,8.25
2017-10-26T14:06:05.783Z,8.35
2017-10-26T14:07:11.840Z,7.68
2017-10-26T14:08:17.888Z,8.15
2017-10-26T14:09:23.941Z,7.82
2017-10-26T14:10:29.665Z,8.30
2017-10-26T14:11:35.151Z,9.50
2017-10-26T14:12:41.228Z,9.05
2017-10-26T14:13:47.277Z,7.95